Time,TemperatureF,DewpointF,PressureIn,WindDirection,WindDirectionDegrees,WindSpeedMPH,WindSpeedGustMPH,Humidity,HourlyPrecipIn,Conditions,Clouds,dailyrainin,SoftwareType,DateUTC
2013-01-01 00:00:00,22.7,16.6,30.19,WSW,245,4.0,11.0,77,0.00,,---,0.00,VWS V13.00,2013-01-01 07:00:00,
2013-01-01 00:05:00,22.3,16.5,30.19,WSW,241,7.0,12.0,78,0.00,,---,0.00,VWS V13.00,2013-01-01 07:05:00,
2013-01-01 00:10:00,22.0,16.2,30.19,WSW,240,7.0,9.0,78,0.00,,---,0.00,VWS V13.00,2013-01-01 07:10:00,
2013-01-01 00:15:00,21.9,16.4,30.19,WSW,244,10.0,13.0,79,0.00,,---,0.00,VWS V13.00,2013-01-01 07:15:00,
2013-01-01 00:20:00,22.0,16.5,30.19,WSW,249,7.0,13.0,79,0.00,,---,0.00,VWS V13.00,2013-01-01 07:20:00,
2013-01-01 00:25:00,22.4,16.9,30.19,WSW,248,7.0,15.0,79,0.00,,---,0.00,VWS V13.00,2013-01-01 07:25:00,
2013-01-01 00:30:00,22.8,17.3,30.19,WSW,252,6.0,15.0,79,0.00,,---,0.00,VWS V13.00,2013-01-01 07:30:00,
2013-01-01 00:35:00,23.3,17.5,30.19,WSW,244,6.0,15.0,78,0.00,,---,0.00,VWS V13.00,2013-01-01 07:35:00,
2013-01-01 00:40:00,23.6,17.5,30.18,WSW,242,7.0,9.0,77,0.00,,---,0.00,VWS V13.00,2013-01-01 07:40:00,
2013-01-01 00:45:00,23.8,17.7,30.18,WSW,238,8.0,10.0,77,0.00,,---,0.00,VWS V13.00,2013-01-01 07:45:00,
2013-01-01 00:50:00,23.9,17.5,30.18,West,264,7.0,12.0,76,0.00,,---,0.00,VWS V13.00,2013-01-01 07:50:00,
2013-01-01 00:55:00,23.9,17.5,30.17,WSW,250,6.0,12.0,76,0.00,,---,0.00,VWS V13.00,2013-01-01 07:55:00,
2013-01-01 01:00:00,23.9,17.5,30.17,WSW,238,7.0,12.0,76,0.00,,---,0.00,VWS V13.00,2013-01-01 08:00:00,
2013-01-01 01:05:00,23.8,17.0,30.17,WSW,242,6.0,12.0,75,0.00,,---,0.00,VWS V13.00,2013-01-01 08:05:00,
2013-01-01 01:10:00,23.7,17.0,30.17,SW,234,5.0,8.0,75,0.00,,---,0.00,VWS V13.00,2013-01-01 08:10:00,
2013-01-01 01:15:00,23.6,16.9,30.17,WSW,238,7.0,10.0,75,0.00,,---,0.00,VWS V13.00,2013-01-01 08:15:00,
2013-01-01 01:20:00,23.4,17.0,30.17,SW,233,5.0,11.0,76,0.00,,---,0.00,VWS V13.00,2013-01-01 08:20:00,
2013-01-01 01:25:00,23.4,17.0,30.18,SW,234,7.0,11.0,76,0.00,,---,0.00,VWS V13.00,2013-01-01 08:25:00,
2013-01-01 01:30:00,23.4,17.0,30.18,WSW,237,6.0,11.0,76,0.00,,---,0.00,VWS V13.00,2013-01-01 08:30:00,
2013-01-01 01:35:00,23.3,16.9,30.18,WSW,238,7.0,11.0,76,0.00,,---,0.00,VWS V13.00,2013-01-01 08:35:00,
2013-01-01 01:40:00,23.4,17.0,30.18,WSW,237,6.0,7.0,76,0.00,,---,0.00,VWS V13.00,2013-01-01 08:40:00,
2013-01-01 01:45:00,23.5,17.4,30.18,WSW,241,5.0,10.0,77,0.00,,---,0.00,VWS V13.00,2013-01-01 08:45:00,
2013-01-01 01:50:00,23.7,17.6,30.18,WSW,242,8.0,11.0,77,0.00,,---,0.00,VWS V13.00,2013-01-01 08:50:00,
2013-01-01 01:55:00,24.0,17.9,30.17,WSW,250,9.0,13.0,77,0.00,,---,0.00,VWS V13.00,2013-01-01 08:55:00,
2013-01-01 02:00:00,24.4,17.9,30.17,WSW,246,6.0,13.0,76,0.00,,---,0.00,VWS V13.00,2013-01-01 09:00:00,
2013-01-01 02:05:00,24.7,18.2,30.17,WSW,246,5.0,13.0,76,0.00,,---,0.00,VWS V13.00,2013-01-01 09:05:00,
2013-01-01 02:10:00,24.8,18.3,30.16,WSW,246,6.0,7.0,76,0.00,,---,0.00,VWS V13.00,2013-01-01 09:10:00,
2013-01-01 02:15:00,24.9,18.1,30.16,WSW,246,6.0,7.0,75,0.00,,---,0.00,VWS V13.00,2013-01-01 09:15:00,
2013-01-01 02:20:00,24.9,18.1,30.16,WSW,243,6.0,10.0,75,0.00,,---,0.00,VWS V13.00,2013-01-01 09:20:00,
2013-01-01 02:25:00,25.0,18.2,30.17,WSW,244,5.0,12.0,75,0.00,,---,0.00,VWS V13.00,2013-01-01 09:25:00,
2013-01-01 02:30:00,25.1,18.3,30.17,WSW,246,6.0,12.0,75,0.00,,---,0.00,VWS V13.00,2013-01-01 09:30:00,
2013-01-01 02:35:00,25.3,18.5,30.17,WSW,244,7.0,12.0,75,0.00,,---,0.00,VWS V13.00,2013-01-01 09:35:00,
2013-01-01 02:40:00,25.5,18.7,30.17,SW,236,9.0,11.0,75,0.00,,---,0.00,VWS V13.00,2013-01-01 09:40:00,
2013-01-01 02:45:00,25.7,18.9,30.17,West,260,9.0,14.0,75,0.00,,---,0.00,VWS V13.00,2013-01-01 09:45:00,
2013-01-01 02:50:00,25.9,18.8,30.17,West,263,12.0,14.0,74,0.00,,---,0.00,VWS V13.00,2013-01-01 09:50:00,
2013-01-01 02:55:00,26.0,18.9,30.17,West,264,9.0,15.0,74,0.00,,---,0.00,VWS V13.00,2013-01-01 09:55:00,
2013-01-01 03:00:00,26.0,18.9,30.17,WSW,257,11.0,15.0,74,0.00,,---,0.00,VWS V13.00,2013-01-01 10:00:00,
2013-01-01 03:05:00,25.8,18.7,30.17,West,259,10.0,15.0,74,0.00,,---,0.00,VWS V13.00,2013-01-01 10:05:00,
2013-01-01 03:10:00,25.6,18.5,30.16,West,259,11.0,11.0,74,0.00,,---,0.00,VWS V13.00,2013-01-01 10:10:00,
2013-01-01 03:15:00,25.5,18.7,30.16,WSW,252,11.0,13.0,75,0.00,,---,0.00,VWS V13.00,2013-01-01 10:15:00,
2013-01-01 03:20:00,25.5,18.7,30.16,WSW,254,10.0,14.0,75,0.00,,---,0.00,VWS V13.00,2013-01-01 10:20:00,
2013-01-01 03:25:00,25.6,18.8,30.16,WSW,257,10.0,14.0,75,0.00,,---,0.00,VWS V13.00,2013-01-01 10:25:00,
2013-01-01 03:30:00,25.7,18.9,30.16,WSW,252,10.0,15.0,75,0.00,,---,0.00,VWS V13.00,2013-01-01 10:30:00,
2013-01-01 03:35:00,25.9,18.8,30.16,West,261,8.0,15.0,74,0.00,,---,0.00,VWS V13.00,2013-01-01 10:35:00,
2013-01-01 03:40:00,26.1,19.0,30.16,West,266,12.0,14.0,74,0.00,,---,0.00,VWS V13.00,2013-01-01 10:40:00,
2013-01-01 03:45:00,26.3,18.8,30.16,West,261,10.0,16.0,73,0.00,,---,0.00,VWS V13.00,2013-01-01 10:45:00,
2013-01-01 03:50:00,26.5,19.0,30.16,West,262,12.0,16.0,73,0.00,,---,0.00,VWS V13.00,2013-01-01 10:50:00,
2013-01-01 03:55:00,26.5,19.0,30.16,WSW,251,8.0,16.0,73,0.00,,---,0.00,VWS V13.00,2013-01-01 10:55:00,
2013-01-01 04:00:00,26.5,19.0,30.16,WSW,258,11.0,16.0,73,0.00,,---,0.00,VWS V13.00,2013-01-01 11:00:00,
2013-01-01 04:05:00,26.5,19.4,30.16,West,259,7.0,16.0,74,0.00,,---,0.00,VWS V13.00,2013-01-01 11:05:00,
2013-01-01 04:10:00,26.4,19.2,30.16,West,261,9.0,9.0,74,0.00,,---,0.00,VWS V13.00,2013-01-01 11:10:00,
2013-01-01 04:15:00,26.4,19.2,30.16,West,262,4.0,11.0,74,0.00,,---,0.00,VWS V13.00,2013-01-01 11:15:00,
2013-01-01 04:20:00,26.5,19.7,30.16,West,261,9.0,11.0,75,0.00,,---,0.00,VWS V13.00,2013-01-01 11:20:00,
2013-01-01 04:25:00,26.5,19.7,30.15,West,261,9.0,11.0,75,0.00,,---,0.00,VWS V13.00,2013-01-01 11:25:00,
2013-01-01 04:30:00,26.5,19.7,30.15,West,264,10.0,12.0,75,0.00,,---,0.00,VWS V13.00,2013-01-01 11:30:00,
2013-01-01 04:35:00,26.7,19.9,30.15,West,267,11.0,14.0,75,0.00,,---,0.00,VWS V13.00,2013-01-01 11:35:00,
2013-01-01 04:40:00,27.0,19.8,30.14,West,265,10.0,13.0,74,0.00,,---,0.00,VWS V13.00,2013-01-01 11:40:00,
2013-01-01 04:45:00,27.2,20.0,30.14,West,261,11.0,15.0,74,0.00,,---,0.00,VWS V13.00,2013-01-01 11:45:00,
2013-01-01 04:50:00,27.4,19.9,30.14,West,262,12.0,16.0,73,0.00,,---,0.00,VWS V13.00,2013-01-01 11:50:00,
2013-01-01 04:55:00,27.5,19.7,30.13,West,263,13.0,16.0,72,0.00,,---,0.00,VWS V13.00,2013-01-01 11:55:00,
2013-01-01 05:00:00,27.6,19.8,30.13,West,264,14.0,16.0,72,0.00,,---,0.00,VWS V13.00,2013-01-01 12:00:00,
2013-01-01 05:05:00,27.7,19.5,30.13,West,260,9.0,16.0,71,0.00,,---,0.00,VWS V13.00,2013-01-01 12:05:00,
2013-01-01 05:10:00,27.6,19.4,30.12,WSW,251,9.0,10.0,71,0.00,,---,0.00,VWS V13.00,2013-01-01 12:10:00,
2013-01-01 05:15:00,27.2,19.7,30.12,WSW,238,12.0,13.0,73,0.00,,---,0.00,VWS V13.00,2013-01-01 12:15:00,
2013-01-01 05:20:00,26.9,19.4,30.12,WSW,238,12.0,14.0,73,0.00,,---,0.00,VWS V13.00,2013-01-01 12:20:00,
2013-01-01 05:25:00,26.7,19.2,30.13,WSW,248,13.0,15.0,73,0.00,,---,0.00,VWS V13.00,2013-01-01 12:25:00,
2013-01-01 05:30:00,26.8,19.0,30.13,WSW,248,13.0,15.0,72,0.00,,---,0.00,VWS V13.00,2013-01-01 12:30:00,
2013-01-01 05:35:00,26.9,18.8,30.13,WSW,253,7.0,15.0,71,0.00,,---,0.00,VWS V13.00,2013-01-01 12:35:00,
2013-01-01 05:40:00,26.8,18.3,30.12,WSW,254,11.0,14.0,70,0.00,,---,0.00,VWS V13.00,2013-01-01 12:40:00,
2013-01-01 05:45:00,26.5,18.0,30.12,West,259,10.0,14.0,70,0.00,,---,0.00,VWS V13.00,2013-01-01 12:45:00,
2013-01-01 05:50:00,26.2,17.8,30.12,West,260,8.0,14.0,70,0.00,,---,0.00,VWS V13.00,2013-01-01 12:50:00,
2013-01-01 05:55:00,25.7,17.3,30.12,West,260,2.0,14.0,70,0.00,,---,0.00,VWS V13.00,2013-01-01 12:55:00,
2013-01-01 06:00:00,25.3,16.6,30.12,West,260,4.0,14.0,69,0.00,,---,0.00,VWS V13.00,2013-01-01 13:00:00,
2013-01-01 06:05:00,24.9,16.5,30.12,West,260,0.0,14.0,70,0.00,,---,0.00,VWS V13.00,2013-01-01 13:05:00,
2013-01-01 06:10:00,24.5,16.1,30.13,West,260,0.0,0.0,70,0.00,,---,0.00,VWS V13.00,2013-01-01 13:10:00,
2013-01-01 06:15:00,24.1,16.1,30.13,West,260,0.0,0.0,71,0.00,,---,0.00,VWS V13.00,2013-01-01 13:15:00,
2013-01-01 06:20:00,23.8,16.1,30.13,West,260,0.0,2.0,72,0.00,,---,0.00,VWS V13.00,2013-01-01 13:20:00,
2013-01-01 06:25:00,23.6,15.9,30.14,West,260,0.0,2.0,72,0.00,,---,0.00,VWS V13.00,2013-01-01 13:25:00,
2013-01-01 06:30:00,23.4,15.7,30.14,West,260,0.0,2.0,72,0.00,,---,0.00,VWS V13.00,2013-01-01 13:30:00,
2013-01-01 06:35:00,23.2,15.8,30.14,West,260,0.0,2.0,73,0.00,,---,0.00,VWS V13.00,2013-01-01 13:35:00,
2013-01-01 06:40:00,23.1,15.8,30.15,West,260,0.0,0.0,73,0.00,,---,0.00,VWS V13.00,2013-01-01 13:40:00,
2013-01-01 06:45:00,23.0,16.0,30.15,West,260,0.0,0.0,74,0.00,,---,0.00,VWS V13.00,2013-01-01 13:45:00,
2013-01-01 06:50:00,22.9,15.9,30.15,West,260,0.0,0.0,74,0.00,,---,0.00,VWS V13.00,2013-01-01 13:50:00,
2013-01-01 06:55:00,22.7,15.7,30.14,West,260,0.0,0.0,74,0.00,,---,0.00,VWS V13.00,2013-01-01 13:55:00,
2013-01-01 07:00:00,22.7,16.0,30.14,West,260,0.0,0.0,75,0.00,,---,0.00,VWS V13.00,2013-01-01 14:00:00,
2013-01-01 07:05:00,22.7,16.3,30.14,West,260,0.0,0.0,76,0.00,,---,0.00,VWS V13.00,2013-01-01 14:05:00,
2013-01-01 07:10:00,22.9,16.5,30.14,West,260,0.0,0.0,76,0.00,,---,0.00,VWS V13.00,2013-01-01 14:10:00,
2013-01-01 07:15:00,23.1,16.4,30.14,West,260,0.0,0.0,75,0.00,,---,0.00,VWS V13.00,2013-01-01 14:15:00,
2013-01-01 07:20:00,23.1,16.1,30.14,West,260,0.0,0.0,74,0.00,,---,0.00,VWS V13.00,2013-01-01 14:20:00,
2013-01-01 07:25:00,23.1,16.7,30.14,West,260,0.0,0.0,76,0.00,,---,0.00,VWS V13.00,2013-01-01 14:25:00,
2013-01-01 07:30:00,23.0,16.3,30.14,West,260,0.0,0.0,75,0.00,,---,0.00,VWS V13.00,2013-01-01 14:30:00,
2013-01-01 07:35:00,23.0,16.6,30.14,West,260,0.0,0.0,76,0.00,,---,0.00,VWS V13.00,2013-01-01 14:35:00,
2013-01-01 07:40:00,23.0,16.6,30.14,West,260,0.0,0.0,76,0.00,,---,0.00,VWS V13.00,2013-01-01 14:40:00,
2013-01-01 07:45:00,22.9,16.5,30.14,West,260,0.0,0.0,76,0.00,,---,0.00,VWS V13.00,2013-01-01 14:45:00,
2013-01-01 07:50:00,23.0,16.9,30.14,West,260,0.0,0.0,77,0.00,,---,0.00,VWS V13.00,2013-01-01 14:50:00,
2013-01-01 07:55:00,23.2,17.1,30.13,West,260,0.0,0.0,77,0.00,,---,0.00,VWS V13.00,2013-01-01 14:55:00,
2013-01-01 08:00:00,23.2,17.1,30.13,West,260,0.0,0.0,77,0.00,,---,0.00,VWS V13.00,2013-01-01 15:00:00,
2013-01-01 08:05:00,23.4,17.3,30.13,West,260,0.0,0.0,77,0.00,,---,0.00,VWS V13.00,2013-01-01 15:05:00,
2013-01-01 08:10:00,23.6,17.5,30.13,West,260,0.0,0.0,77,0.00,,---,0.00,VWS V13.00,2013-01-01 15:10:00,
2013-01-01 08:15:00,23.8,17.4,30.13,West,260,0.0,0.0,76,0.00,,---,0.00,VWS V13.00,2013-01-01 15:15:00,
2013-01-01 08:20:00,23.9,17.5,30.13,West,260,0.0,0.0,76,0.00,,---,0.00,VWS V13.00,2013-01-01 15:20:00,
2013-01-01 08:25:00,23.9,17.5,30.13,West,260,0.0,0.0,76,0.00,,---,0.00,VWS V13.00,2013-01-01 15:25:00,
2013-01-01 08:30:00,24.0,17.5,30.13,West,260,0.0,0.0,76,0.00,,---,0.00,VWS V13.00,2013-01-01 15:30:00,
2013-01-01 08:35:00,24.1,17.6,30.13,West,260,0.0,0.0,76,0.00,,---,0.00,VWS V13.00,2013-01-01 15:35:00,
2013-01-01 08:40:00,24.3,17.8,30.14,West,260,0.0,0.0,76,0.00,,---,0.00,VWS V13.00,2013-01-01 15:40:00,
2013-01-01 08:45:00,24.5,17.7,30.14,West,260,2.0,3.0,75,0.00,,---,0.00,VWS V13.00,2013-01-01 15:45:00,
2013-01-01 08:50:00,24.6,17.8,30.14,West,260,0.0,3.0,75,0.00,,---,0.00,VWS V13.00,2013-01-01 15:50:00,
2013-01-01 08:55:00,24.8,18.0,30.14,West,260,0.0,3.0,75,0.00,,---,0.00,VWS V13.00,2013-01-01 15:55:00,
2013-01-01 09:00:00,25.0,18.5,30.14,West,260,2.0,3.0,76,0.00,,---,0.00,VWS V13.00,2013-01-01 16:00:00,
2013-01-01 09:05:00,25.3,19.1,30.14,West,260,3.0,4.0,77,0.00,,---,0.00,VWS V13.00,2013-01-01 16:05:00,
2013-01-01 09:10:00,25.7,19.5,30.14,West,259,6.0,9.0,77,0.00,,---,0.00,VWS V13.00,2013-01-01 16:10:00,
2013-01-01 09:15:00,26.2,20.3,30.14,WSW,252,9.0,10.0,78,0.00,,---,0.00,VWS V13.00,2013-01-01 16:15:00,
2013-01-01 09:20:00,26.8,20.9,30.14,WSW,248,11.0,12.0,78,0.00,,---,0.00,VWS V13.00,2013-01-01 16:20:00,
2013-01-01 09:25:00,27.4,21.5,30.13,WSW,254,9.0,13.0,78,0.00,,---,0.00,VWS V13.00,2013-01-01 16:25:00,
2013-01-01 09:30:00,28.0,22.0,30.13,West,259,10.0,14.0,78,0.00,,---,0.00,VWS V13.00,2013-01-01 16:30:00,
2013-01-01 09:35:00,28.8,22.8,30.13,West,260,10.0,14.0,78,0.00,,---,0.00,VWS V13.00,2013-01-01 16:35:00,
2013-01-01 09:40:00,29.3,23.0,30.12,West,261,13.0,13.0,77,0.00,,---,0.00,VWS V13.00,2013-01-01 16:40:00,
2013-01-01 09:45:00,29.7,23.1,30.12,West,261,11.0,14.0,76,0.00,,---,0.00,VWS V13.00,2013-01-01 16:45:00,
2013-01-01 09:50:00,29.9,23.0,30.12,West,268,12.0,14.0,75,0.00,,---,0.00,VWS V13.00,2013-01-01 16:50:00,
2013-01-01 09:55:00,30.1,23.1,30.14,West,273,10.0,14.0,75,0.00,,---,0.00,VWS V13.00,2013-01-01 16:55:00,
2013-01-01 10:00:00,30.2,23.2,30.14,West,277,12.0,14.0,75,0.00,,---,0.00,VWS V13.00,2013-01-01 17:00:00,
2013-01-01 10:05:00,30.3,23.3,30.14,NW,309,7.0,14.0,75,0.00,,---,0.00,VWS V13.00,2013-01-01 17:05:00,
2013-01-01 10:10:00,29.7,22.8,30.16,NW,310,6.0,7.0,75,0.00,,---,0.00,VWS V13.00,2013-01-01 17:10:00,
2013-01-01 10:15:00,29.0,22.1,30.16,WNW,303,10.0,13.0,75,0.00,,---,0.00,VWS V13.00,2013-01-01 17:15:00,
2013-01-01 10:20:00,28.8,22.8,30.16,WNW,300,13.0,16.0,78,0.00,,---,0.00,VWS V13.00,2013-01-01 17:20:00,
2013-01-01 10:25:00,28.9,23.5,30.17,WNW,288,20.0,26.0,80,0.00,,---,0.00,VWS V13.00,2013-01-01 17:25:00,
2013-01-01 10:30:00,28.9,23.8,30.17,WNW,292,18.0,26.0,81,0.00,,---,0.00,VWS V13.00,2013-01-01 17:30:00,
2013-01-01 10:35:00,28.8,24.0,30.17,WNW,301,24.0,26.0,82,0.00,,---,0.00,VWS V13.00,2013-01-01 17:35:00,
2013-01-01 10:40:00,28.5,24.6,30.19,NW,309,24.0,27.0,85,0.00,,---,0.00,VWS V13.00,2013-01-01 17:40:00,
2013-01-01 10:45:00,27.9,24.5,30.19,NW,304,27.0,31.0,87,0.00,,---,0.00,VWS V13.00,2013-01-01 17:45:00,
2013-01-01 10:50:00,27.5,24.4,30.19,NW,306,22.0,32.0,88,0.00,,---,0.00,VWS V13.00,2013-01-01 17:50:00,
2013-01-01 10:55:00,27.4,24.3,30.22,NW,308,17.0,32.0,88,0.00,,---,0.00,VWS V13.00,2013-01-01 17:55:00,
2013-01-01 11:00:00,27.3,23.7,30.22,NW,304,21.0,33.0,86,0.00,,---,0.00,VWS V13.00,2013-01-01 18:00:00,
2013-01-01 11:05:00,27.2,23.6,30.22,NW,317,27.0,33.0,86,0.00,,---,0.00,VWS V13.00,2013-01-01 18:05:00,
2013-01-01 11:10:00,27.0,23.4,30.23,NW,319,19.0,21.0,86,0.00,,---,0.00,VWS V13.00,2013-01-01 18:10:00,
2013-01-01 11:15:00,26.8,23.2,30.23,NW,326,20.0,33.0,86,0.00,,---,0.00,VWS V13.00,2013-01-01 18:15:00,
2013-01-01 11:20:00,26.6,23.0,30.23,NW,319,24.0,33.0,86,0.00,,---,0.00,VWS V13.00,2013-01-01 18:20:00,
2013-01-01 11:25:00,26.3,23.0,30.23,NW,313,16.0,33.0,87,0.00,,---,0.00,VWS V13.00,2013-01-01 18:25:00,
2013-01-01 11:30:00,26.1,22.8,30.23,NW,310,23.0,33.0,87,0.00,,---,0.00,VWS V13.00,2013-01-01 18:30:00,
2013-01-01 11:35:00,25.8,22.5,30.23,NW,311,22.0,33.0,87,0.00,,---,0.00,VWS V13.00,2013-01-01 18:35:00,
2013-01-01 11:40:00,25.7,22.6,30.23,WNW,301,26.0,26.0,88,0.00,,---,0.00,VWS V13.00,2013-01-01 18:40:00,
2013-01-01 11:45:00,25.4,22.6,30.23,NW,304,27.0,33.0,89,0.00,,---,0.00,VWS V13.00,2013-01-01 18:45:00,
2013-01-01 11:50:00,25.1,22.6,30.23,WNW,302,23.0,34.0,90,0.00,,---,0.00,VWS V13.00,2013-01-01 18:50:00,
2013-01-01 11:55:00,24.9,22.4,30.24,WNW,293,23.0,34.0,90,0.00,,---,0.00,VWS V13.00,2013-01-01 18:55:00,
2013-01-01 12:00:00,24.7,22.5,30.24,WNW,294,19.0,34.0,91,0.00,,---,0.00,VWS V13.00,2013-01-01 19:00:00,
2013-01-01 12:05:00,24.7,22.5,30.24,WNW,296,25.0,34.0,91,0.00,,---,0.00,VWS V13.00,2013-01-01 19:05:00,
2013-01-01 12:10:00,24.7,22.5,30.25,WNW,301,26.0,26.0,91,0.00,,---,0.00,VWS V13.00,2013-01-01 19:10:00,
2013-01-01 12:15:00,24.6,22.4,30.25,WNW,287,17.0,26.0,91,0.00,,---,0.00,VWS V13.00,2013-01-01 19:15:00,
2013-01-01 12:20:00,24.6,22.4,30.25,WNW,290,19.0,27.0,91,0.00,,---,0.00,VWS V13.00,2013-01-01 19:20:00,
2013-01-01 12:25:00,24.6,22.4,30.24,WNW,298,22.0,29.0,91,0.00,,---,0.00,VWS V13.00,2013-01-01 19:25:00,
2013-01-01 12:30:00,24.5,22.2,30.24,WNW,296,23.0,29.0,91,0.00,,---,0.00,VWS V13.00,2013-01-01 19:30:00,
2013-01-01 12:35:00,24.5,22.2,30.24,WNW,294,25.0,29.0,91,0.00,,---,0.00,VWS V13.00,2013-01-01 19:35:00,
2013-01-01 12:40:00,24.5,22.2,30.24,WNW,296,20.0,21.0,91,0.00,,---,0.00,VWS V13.00,2013-01-01 19:40:00,
2013-01-01 12:45:00,24.5,22.5,30.24,WNW,289,19.0,23.0,92,0.00,,---,0.00,VWS V13.00,2013-01-01 19:45:00,
2013-01-01 12:50:00,24.7,22.7,30.24,WNW,300,17.0,24.0,92,0.00,,---,0.00,VWS V13.00,2013-01-01 19:50:00,
2013-01-01 12:55:00,24.8,22.8,30.24,WNW,295,20.0,24.0,92,0.00,,---,0.00,VWS V13.00,2013-01-01 19:55:00,
2013-01-01 13:00:00,24.9,22.9,30.24,WNW,292,18.0,24.0,92,0.00,,---,0.00,VWS V13.00,2013-01-01 20:00:00,
2013-01-01 13:05:00,25.1,23.1,30.24,WNW,290,14.0,24.0,92,0.00,,---,0.00,VWS V13.00,2013-01-01 20:05:00,
2013-01-01 13:10:00,25.2,23.2,30.24,WNW,292,16.0,16.0,92,0.00,,---,0.00,VWS V13.00,2013-01-01 20:10:00,
2013-01-01 13:15:00,25.2,23.2,30.24,WNW,295,17.0,19.0,92,0.00,,---,0.00,VWS V13.00,2013-01-01 20:15:00,
2013-01-01 13:20:00,25.3,23.3,30.24,WNW,291,17.0,19.0,92,0.00,,---,0.00,VWS V13.00,2013-01-01 20:20:00,
2013-01-01 13:25:00,25.4,23.4,30.24,WNW,292,16.0,20.0,92,0.00,,---,0.00,VWS V13.00,2013-01-01 20:25:00,
2013-01-01 13:30:00,25.4,23.1,30.24,WNW,298,17.0,22.0,91,0.00,,---,0.00,VWS V13.00,2013-01-01 20:30:00,
2013-01-01 13:35:00,25.5,23.2,30.24,WNW,284,19.0,23.0,91,0.00,,---,0.00,VWS V13.00,2013-01-01 20:35:00,
2013-01-01 13:40:00,25.6,23.1,30.25,WNW,296,19.0,19.0,90,0.00,,---,0.00,VWS V13.00,2013-01-01 20:40:00,
2013-01-01 13:45:00,25.6,23.1,30.25,WNW,296,20.0,23.0,90,0.00,,---,0.00,VWS V13.00,2013-01-01 20:45:00,
2013-01-01 13:50:00,25.7,23.2,30.25,WNW,294,21.0,24.0,90,0.00,,---,0.00,VWS V13.00,2013-01-01 20:50:00,
2013-01-01 13:55:00,25.8,23.0,30.23,WNW,291,20.0,24.0,89,0.00,,---,0.00,VWS V13.00,2013-01-01 20:55:00,
2013-01-01 14:00:00,25.9,23.1,30.23,WNW,288,16.0,24.0,89,0.00,,---,0.00,VWS V13.00,2013-01-01 21:00:00,
2013-01-01 14:05:00,25.9,22.8,30.23,WNW,284,18.0,24.0,88,0.00,,---,0.00,VWS V13.00,2013-01-01 21:05:00,
2013-01-01 14:10:00,26.1,23.0,30.24,WNW,287,16.0,24.0,88,0.00,,---,0.00,VWS V13.00,2013-01-01 21:10:00,
2013-01-01 14:15:00,26.2,22.9,30.24,WNW,285,17.0,24.0,87,0.00,,---,0.00,VWS V13.00,2013-01-01 21:15:00,
2013-01-01 14:20:00,26.3,23.0,30.24,West,269,14.0,24.0,87,0.00,,---,0.00,VWS V13.00,2013-01-01 21:20:00,
2013-01-01 14:25:00,26.4,22.8,30.24,West,279,12.0,24.0,86,0.00,,---,0.00,VWS V13.00,2013-01-01 21:25:00,
2013-01-01 14:30:00,26.5,22.9,30.24,WNW,294,13.0,24.0,86,0.00,,---,0.00,VWS V13.00,2013-01-01 21:30:00,
2013-01-01 14:35:00,26.6,22.7,30.24,WNW,288,16.0,24.0,85,0.00,,---,0.00,VWS V13.00,2013-01-01 21:35:00,
2013-01-01 14:40:00,26.7,22.5,30.24,WNW,290,17.0,24.0,84,0.00,,---,0.00,VWS V13.00,2013-01-01 21:40:00,
2013-01-01 14:45:00,26.6,22.4,30.24,WNW,303,23.0,25.0,84,0.00,,---,0.00,VWS V13.00,2013-01-01 21:45:00,
2013-01-01 14:50:00,26.2,22.0,30.24,WNW,299,23.0,29.0,84,0.00,,---,0.00,VWS V13.00,2013-01-01 21:50:00,
2013-01-01 14:55:00,26.0,22.1,30.25,WNW,296,24.0,29.0,85,0.00,,---,0.00,VWS V13.00,2013-01-01 21:55:00,
2013-01-01 15:00:00,25.8,21.9,30.25,NW,309,17.0,29.0,85,0.00,,---,0.00,VWS V13.00,2013-01-01 22:00:00,
2013-01-01 15:05:00,25.7,21.8,30.25,WNW,294,20.0,29.0,85,0.00,,---,0.00,VWS V13.00,2013-01-01 22:05:00,
2013-01-01 15:10:00,25.7,21.8,30.25,WNW,298,20.0,29.0,85,0.00,,---,0.00,VWS V13.00,2013-01-01 22:10:00,
2013-01-01 15:15:00,25.7,21.8,30.25,WNW,294,18.0,26.0,85,0.00,,---,0.00,VWS V13.00,2013-01-01 22:15:00,
2013-01-01 15:20:00,25.8,21.9,30.25,WNW,290,18.0,26.0,85,0.00,,---,0.00,VWS V13.00,2013-01-01 22:20:00,
2013-01-01 15:25:00,25.9,22.0,30.27,WNW,291,20.0,26.0,85,0.00,,---,0.00,VWS V13.00,2013-01-01 22:25:00,
2013-01-01 15:30:00,26.0,21.8,30.27,WNW,299,18.0,26.0,84,0.00,,---,0.00,VWS V13.00,2013-01-01 22:30:00,
2013-01-01 15:34:00,26.1,21.6,30.27,WNW,302,20.0,27.0,83,0.00,,---,0.00,VWS V13.00,2013-01-01 22:34:00,
2013-01-01 15:39:00,26.2,21.8,30.27,WNW,289,21.0,27.0,83,0.00,,---,0.00,VWS V13.00,2013-01-01 22:39:00,
2013-01-01 15:44:00,26.2,21.8,30.27,WNW,294,17.0,22.0,83,0.00,,---,0.00,VWS V13.00,2013-01-01 22:44:00,
2013-01-01 15:49:00,26.2,21.5,30.27,WNW,295,16.0,22.0,82,0.00,,---,0.00,VWS V13.00,2013-01-01 22:49:00,
2013-01-01 15:54:00,26.2,21.8,30.27,WNW,289,15.0,22.0,83,0.00,,---,0.00,VWS V13.00,2013-01-01 22:54:00,
2013-01-01 15:59:00,26.1,21.9,30.27,WNW,298,17.0,22.0,84,0.00,,---,0.00,VWS V13.00,2013-01-01 22:59:00,
2013-01-01 16:04:00,26.1,21.9,30.27,WNW,291,18.0,23.0,84,0.00,,---,0.00,VWS V13.00,2013-01-01 23:04:00,
2013-01-01 16:09:00,26.1,21.9,30.27,WNW,292,17.0,23.0,84,0.00,,---,0.00,VWS V13.00,2013-01-01 23:09:00,
2013-01-01 16:14:00,26.0,21.8,30.27,WNW,285,16.0,23.0,84,0.00,,---,0.00,VWS V13.00,2013-01-01 23:14:00,
2013-01-01 16:19:00,26.1,21.9,30.27,WNW,289,21.0,23.0,84,0.00,,---,0.00,VWS V13.00,2013-01-01 23:19:00,
2013-01-01 16:24:00,26.2,21.8,30.28,WNW,287,16.0,24.0,83,0.00,,---,0.00,VWS V13.00,2013-01-01 23:24:00,
2013-01-01 16:29:00,26.2,21.8,30.28,WNW,299,19.0,24.0,83,0.00,,---,0.00,VWS V13.00,2013-01-01 23:29:00,
2013-01-01 16:34:00,26.3,21.6,30.28,WNW,299,18.0,24.0,82,0.00,,---,0.00,VWS V13.00,2013-01-01 23:34:00,
2013-01-01 16:39:00,26.3,21.3,30.29,WNW,298,20.0,24.0,81,0.00,,---,0.00,VWS V13.00,2013-01-01 23:39:00,
2013-01-01 16:44:00,26.3,21.3,30.29,WNW,294,17.0,24.0,81,0.00,,---,0.00,VWS V13.00,2013-01-01 23:44:00,
2013-01-01 16:49:00,26.4,21.1,30.29,WNW,286,19.0,24.0,80,0.00,,---,0.00,VWS V13.00,2013-01-01 23:49:00,
2013-01-01 16:54:00,26.3,21.3,30.29,WNW,287,20.0,24.0,81,0.00,,---,0.00,VWS V13.00,2013-01-01 23:54:00,
2013-01-01 16:59:00,26.2,20.9,30.29,WNW,293,18.0,24.0,80,0.00,,---,0.00,VWS V13.00,2013-01-01 23:59:00,
2013-01-01 17:04:00,26.2,20.9,30.29,WNW,294,17.0,24.0,80,0.00,,---,0.00,VWS V13.00,2013-01-02 00:04:00,
2013-01-01 17:09:00,26.2,20.6,30.30,WNW,298,16.0,24.0,79,0.00,,---,0.00,VWS V13.00,2013-01-02 00:09:00,
2013-01-01 17:14:00,26.1,20.5,30.30,NW,304,19.0,23.0,79,0.00,,---,0.00,VWS V13.00,2013-01-02 00:14:00,
2013-01-01 17:19:00,26.1,20.2,30.30,WNW,295,18.0,25.0,78,0.00,,---,0.00,VWS V13.00,2013-01-02 00:19:00,
2013-01-01 17:24:00,26.0,20.1,30.30,WNW,300,18.0,25.0,78,0.00,,---,0.00,VWS V13.00,2013-01-02 00:24:00,
2013-01-01 17:29:00,25.8,19.9,30.30,WNW,294,18.0,25.0,78,0.00,,---,0.00,VWS V13.00,2013-01-02 00:29:00,
2013-01-01 17:34:00,25.6,19.4,30.30,WNW,292,20.0,25.0,77,0.00,,---,0.00,VWS V13.00,2013-01-02 00:34:00,
2013-01-01 17:39:00,25.6,19.4,30.30,WNW,292,20.0,25.0,77,0.00,,---,0.00,VWS V13.00,2013-01-02 00:39:00,
2013-01-01 17:44:00,25.6,19.1,30.30,WNW,296,17.0,25.0,76,0.00,,---,0.00,VWS V13.00,2013-01-02 00:44:00,
2013-01-01 17:49:00,25.6,19.1,30.30,WNW,292,19.0,25.0,76,0.00,,---,0.00,VWS V13.00,2013-01-02 00:49:00,
2013-01-01 17:54:00,25.5,19.0,30.31,WNW,297,16.0,25.0,76,0.00,,---,0.00,VWS V13.00,2013-01-02 00:54:00,
2013-01-01 17:59:00,25.5,18.7,30.31,WNW,298,20.0,25.0,75,0.00,,---,0.00,VWS V13.00,2013-01-02 00:59:00,
2013-01-01 18:04:00,25.6,18.8,30.31,WNW,299,23.0,25.0,75,0.00,,---,0.00,VWS V13.00,2013-01-02 01:04:00,
2013-01-01 18:09:00,25.7,18.6,30.32,WNW,300,20.0,28.0,74,0.00,,---,0.00,VWS V13.00,2013-01-02 01:09:00,
2013-01-01 18:14:00,25.6,18.2,30.32,WNW,298,25.0,29.0,73,0.00,,---,0.00,VWS V13.00,2013-01-02 01:14:00,
2013-01-01 18:19:00,25.5,18.1,30.32,WNW,298,19.0,29.0,73,0.00,,---,0.00,VWS V13.00,2013-01-02 01:19:00,
2013-01-01 18:24:00,25.3,17.5,30.32,NW,305,18.0,29.0,72,0.00,,---,0.00,VWS V13.00,2013-01-02 01:24:00,
2013-01-01 18:29:00,25.2,17.5,30.32,NW,306,16.0,29.0,72,0.00,,---,0.00,VWS V13.00,2013-01-02 01:29:00,
2013-01-01 18:34:00,25.0,17.3,30.32,WNW,288,20.0,29.0,72,0.00,,---,0.00,VWS V13.00,2013-01-02 01:34:00,
2013-01-01 18:39:00,24.8,17.1,30.33,WNW,292,16.0,29.0,72,0.00,,---,0.00,VWS V13.00,2013-01-02 01:39:00,
2013-01-01 18:44:00,24.6,17.2,30.33,West,279,17.0,17.0,73,0.00,,---,0.00,VWS V13.00,2013-01-02 01:44:00,
2013-01-01 18:49:00,24.4,17.0,30.33,West,269,10.0,18.0,73,0.00,,---,0.00,VWS V13.00,2013-01-02 01:49:00,
2013-01-01 18:54:00,24.2,17.1,30.34,WSW,254,5.0,18.0,74,0.00,,---,0.00,VWS V13.00,2013-01-02 01:54:00,
2013-01-01 18:59:00,23.9,16.8,30.34,WSW,254,3.0,18.0,74,0.00,,---,0.00,VWS V13.00,2013-01-02 01:59:00,
2013-01-01 19:04:00,23.5,16.8,30.34,WSW,254,3.0,18.0,75,0.00,,---,0.00,VWS V13.00,2013-01-02 02:04:00,
2013-01-01 19:09:00,23.1,16.7,30.35,West,267,9.0,18.0,76,0.00,,---,0.00,VWS V13.00,2013-01-02 02:09:00,
2013-01-01 19:14:00,22.9,16.5,30.35,West,280,7.0,11.0,76,0.00,,---,0.00,VWS V13.00,2013-01-02 02:14:00,
2013-01-01 19:19:00,22.7,16.6,30.35,West,277,7.0,11.0,77,0.00,,---,0.00,VWS V13.00,2013-01-02 02:19:00,
2013-01-01 19:24:00,22.6,16.5,30.36,West,275,7.0,11.0,77,0.00,,---,0.00,VWS V13.00,2013-01-02 02:24:00,
2013-01-01 19:29:00,22.5,16.4,30.36,West,273,6.0,11.0,77,0.00,,---,0.00,VWS V13.00,2013-01-02 02:29:00,
2013-01-01 19:34:00,22.4,16.6,30.36,West,281,10.0,12.0,78,0.00,,---,0.00,VWS V13.00,2013-01-02 02:34:00,
2013-01-01 19:39:00,22.4,16.6,30.36,West,273,12.0,15.0,78,0.00,,---,0.00,VWS V13.00,2013-01-02 02:39:00,
2013-01-01 19:44:00,22.7,16.9,30.36,West,267,15.0,16.0,78,0.00,,---,0.00,VWS V13.00,2013-01-02 02:44:00,
2013-01-01 19:49:00,23.1,16.7,30.36,West,267,17.0,19.0,76,0.00,,---,0.00,VWS V13.00,2013-01-02 02:49:00,
2013-01-01 19:54:00,23.4,16.7,30.35,West,268,16.0,19.0,75,0.00,,---,0.00,VWS V13.00,2013-01-02 02:54:00,
2013-01-01 19:59:00,23.4,16.4,30.35,West,268,15.0,19.0,74,0.00,,---,0.00,VWS V13.00,2013-01-02 02:59:00,
2013-01-01 20:04:00,23.2,16.2,30.35,West,270,13.0,19.0,74,0.00,,---,0.00,VWS V13.00,2013-01-02 03:04:00,
2013-01-01 20:09:00,23.0,15.6,30.35,West,272,13.0,19.0,73,0.00,,---,0.00,VWS V13.00,2013-01-02 03:09:00,
2013-01-01 20:14:00,22.6,15.6,30.35,West,275,13.0,15.0,74,0.00,,---,0.00,VWS V13.00,2013-01-02 03:14:00,
2013-01-01 20:19:00,22.3,15.3,30.35,West,272,13.0,15.0,74,0.00,,---,0.00,VWS V13.00,2013-01-02 03:19:00,
2013-01-01 20:24:00,22.0,15.0,30.35,West,274,11.0,16.0,74,0.00,,---,0.00,VWS V13.00,2013-01-02 03:24:00,
2013-01-01 20:29:00,21.7,14.7,30.35,West,275,16.0,17.0,74,0.00,,---,0.00,VWS V13.00,2013-01-02 03:29:00,
2013-01-01 20:34:00,21.8,14.8,30.35,West,279,15.0,17.0,74,0.00,,---,0.00,VWS V13.00,2013-01-02 03:34:00,
2013-01-01 20:39:00,22.0,15.0,30.35,West,277,15.0,18.0,74,0.00,,---,0.00,VWS V13.00,2013-01-02 03:39:00,
2013-01-01 20:44:00,22.2,15.2,30.35,West,273,14.0,17.0,74,0.00,,---,0.00,VWS V13.00,2013-01-02 03:44:00,
2013-01-01 20:49:00,22.3,15.0,30.35,West,279,14.0,19.0,73,0.00,,---,0.00,VWS V13.00,2013-01-02 03:49:00,
2013-01-01 20:54:00,22.5,15.2,30.32,West,279,16.0,19.0,73,0.00,,---,0.00,VWS V13.00,2013-01-02 03:54:00,
2013-01-01 20:59:00,22.5,15.2,30.32,WNW,282,17.0,21.0,73,0.00,,---,0.00,VWS V13.00,2013-01-02 03:59:00,
2013-01-01 21:04:00,22.8,15.5,30.32,WNW,286,17.0,21.0,73,0.00,,---,0.00,VWS V13.00,2013-01-02 04:04:00,
2013-01-01 21:09:00,22.9,15.2,30.33,West,278,14.0,21.0,72,0.00,,---,0.00,VWS V13.00,2013-01-02 04:09:00,
2013-01-01 21:14:00,22.9,15.6,30.33,West,280,14.0,21.0,73,0.00,,---,0.00,VWS V13.00,2013-01-02 04:14:00,
2013-01-01 21:19:00,22.9,15.6,30.33,West,278,13.0,22.0,73,0.00,,---,0.00,VWS V13.00,2013-01-02 04:19:00,
2013-01-01 21:24:00,22.9,15.6,30.33,WNW,287,18.0,23.0,73,0.00,,---,0.00,VWS V13.00,2013-01-02 04:24:00,
2013-01-01 21:29:00,22.9,15.2,30.33,WNW,286,16.0,23.0,72,0.00,,---,0.00,VWS V13.00,2013-01-02 04:29:00,
2013-01-01 21:34:00,22.9,15.6,30.33,WNW,290,13.0,23.0,73,0.00,,---,0.00,VWS V13.00,2013-01-02 04:34:00,
2013-01-01 21:39:00,22.9,15.6,30.33,WNW,295,16.0,23.0,73,0.00,,---,0.00,VWS V13.00,2013-01-02 04:39:00,
2013-01-01 21:44:00,22.9,15.6,30.33,WNW,294,16.0,21.0,73,0.00,,---,0.00,VWS V13.00,2013-01-02 04:44:00,
2013-01-01 21:49:00,22.9,15.6,30.33,WNW,291,17.0,21.0,73,0.00,,---,0.00,VWS V13.00,2013-01-02 04:49:00,
2013-01-01 21:54:00,23.0,15.6,30.33,WNW,294,15.0,21.0,73,0.00,,---,0.00,VWS V13.00,2013-01-02 04:54:00,
2013-01-01 21:59:00,23.0,15.6,30.33,WNW,284,14.0,21.0,73,0.00,,---,0.00,VWS V13.00,2013-01-02 04:59:00,
2013-01-01 22:00:00,23.0,15.3,30.33,WNW,301,14.0,21.0,72,0.00,,---,0.00,VWS V13.00,2013-01-02 05:00:00,
2013-01-01 22:01:00,23.0,15.3,30.33,WNW,298,11.0,21.0,72,0.00,,---,0.00,VWS V13.00,2013-01-02 05:01:00,
2013-01-01 22:06:00,23.0,15.3,30.33,WNW,291,14.0,21.0,72,0.00,,---,0.00,VWS V13.00,2013-01-02 05:06:00,
2013-01-01 22:11:00,22.9,15.6,30.33,West,276,17.0,17.0,73,0.00,,---,0.00,VWS V13.00,2013-01-02 05:11:00,
2013-01-01 22:16:00,22.8,15.1,30.33,West,270,15.0,22.0,72,0.00,,---,0.00,VWS V13.00,2013-01-02 05:16:00,
2013-01-01 22:21:00,22.7,15.1,30.33,West,269,18.0,22.0,72,0.00,,---,0.00,VWS V13.00,2013-01-02 05:21:00,
2013-01-01 22:26:00,22.6,15.3,30.32,West,269,20.0,22.0,73,0.00,,---,0.00,VWS V13.00,2013-01-02 05:26:00,
2013-01-01 22:31:00,22.6,14.9,30.32,West,276,16.0,22.0,72,0.00,,---,0.00,VWS V13.00,2013-01-02 05:31:00,
2013-01-01 22:36:00,22.8,15.1,30.32,West,277,15.0,22.0,72,0.00,,---,0.00,VWS V13.00,2013-01-02 05:36:00,
2013-01-01 22:41:00,22.8,15.1,30.32,West,272,14.0,17.0,72,0.00,,---,0.00,VWS V13.00,2013-01-02 05:41:00,
2013-01-01 22:46:00,22.9,14.9,30.32,WNW,283,19.0,21.0,71,0.00,,---,0.00,VWS V13.00,2013-01-02 05:46:00,
2013-01-01 22:51:00,22.9,14.9,30.32,WNW,300,19.0,21.0,71,0.00,,---,0.00,VWS V13.00,2013-01-02 05:51:00,
2013-01-01 22:56:00,23.0,14.4,30.34,WNW,295,23.0,27.0,69,0.00,,---,0.00,VWS V13.00,2013-01-02 05:56:00,
2013-01-01 23:01:00,22.9,13.9,30.34,WNW,286,16.0,27.0,68,0.00,,---,0.00,VWS V13.00,2013-01-02 06:01:00,
2013-01-01 23:06:00,22.5,13.9,30.34,West,280,15.0,27.0,69,0.00,,---,0.00,VWS V13.00,2013-01-02 06:06:00,
2013-01-01 23:11:00,22.0,13.4,30.35,West,281,15.0,17.0,69,0.00,,---,0.00,VWS V13.00,2013-01-02 06:11:00,
2013-01-01 23:16:00,21.5,12.9,30.35,West,270,16.0,21.0,69,0.00,,---,0.00,VWS V13.00,2013-01-02 06:16:00,
2013-01-01 23:21:00,20.8,12.2,30.35,West,269,13.0,21.0,69,0.00,,---,0.00,VWS V13.00,2013-01-02 06:21:00,
2013-01-01 23:26:00,20.2,12.0,30.36,West,262,12.0,21.0,70,0.00,,---,0.00,VWS V13.00,2013-01-02 06:26:00,
2013-01-01 23:31:00,19.7,11.5,30.36,West,259,13.0,21.0,70,0.00,,---,0.00,VWS V13.00,2013-01-02 06:31:00,
2013-01-01 23:36:00,19.0,11.2,30.36,WSW,254,9.0,21.0,71,0.00,,---,0.00,VWS V13.00,2013-01-02 06:36:00,
2013-01-01 23:41:00,18.6,11.1,30.37,WSW,245,10.0,12.0,72,0.00,,---,0.00,VWS V13.00,2013-01-02 06:41:00,
2013-01-01 23:46:00,18.4,10.9,30.37,WSW,246,10.0,12.0,72,0.00,,---,0.00,VWS V13.00,2013-01-02 06:46:00,
2013-01-01 23:51:00,18.3,10.8,30.37,WSW,244,10.0,12.0,72,0.00,,---,0.00,VWS V13.00,2013-01-02 06:51:00,
2013-01-01 23:56:00,18.2,10.4,30.38,WSW,245,5.0,12.0,71,0.00,,---,0.00,VWS V13.00,2013-01-02 06:56:00,